createdAt,value
2018-08-20T00:00:52.224Z,75.80
2018-08-20T00:03:20.846Z,77.20
2018-08-20T00:05:52.922Z,77.30
2018-08-20T00:08:22.234Z,77.00
2018-08-20T00:10:57.051Z,77.60
2018-08-20T00:13:26.209Z,77.90
2018-08-20T00:15:55.460Z,78.20
2018-08-20T00:18:29.221Z,79.20
2018-08-20T00:20:57.811Z,77.10
2018-08-20T00:23:26.401Z,77.70
2018-08-20T00:25:58.265Z,77.90
2018-08-20T00:28:27.601Z,77.60
2018-08-20T00:30:56.262Z,78.40
2018-08-20T00:33:24.871Z,77.50
2018-08-20T00:35:53.566Z,77.90
2018-08-20T00:38:22.186Z,78.70
2018-08-20T00:40:50.766Z,79.30
2018-08-20T00:43:19.405Z,79.30
2018-08-20T00:45:48.501Z,79.80
2018-08-20T00:48:17.201Z,77.80
2018-08-20T00:50:45.823Z,78.90
2018-08-20T00:53:14.446Z,77.80
2018-08-20T00:55:43.071Z,79.10
2018-08-20T00:58:11.693Z,79.40
2018-08-20T01:00:40.278Z,80.30
2018-08-20T01:03:08.861Z,80.30
2018-08-20T01:05:37.445Z,80.00
2018-08-20T01:08:06.077Z,80.00
2018-08-20T01:10:34.769Z,80.00
2018-08-20T01:13:03.373Z,80.10
2018-08-20T01:15:31.990Z,79.10
2018-08-20T01:18:00.643Z,79.60
2018-08-20T01:20:29.218Z,80.00
2018-08-20T01:22:57.847Z,80.10
2018-08-20T01:25:26.457Z,80.30
2018-08-20T01:27:55.062Z,81.40
2018-08-20T01:30:23.742Z,80.50
2018-08-20T01:32:56.998Z,81.10
2018-08-20T01:35:27.848Z,80.30
2018-08-20T01:37:56.670Z,80.40
2018-08-20T01:40:25.489Z,79.40
2018-08-20T01:42:54.093Z,80.50
2018-08-20T01:45:23.620Z,79.70
2018-08-20T01:47:52.213Z,80.40
2018-08-20T01:50:20.808Z,79.60
2018-08-20T01:52:49.435Z,79.10
2018-08-20T01:55:18.040Z,80.20
2018-08-20T01:57:46.673Z,80.80
2018-08-20T02:00:15.269Z,81.80
2018-08-20T02:02:48.136Z,82.20
2018-08-20T02:05:16.952Z,81.90
2018-08-20T02:07:45.565Z,82.00
2018-08-20T02:10:14.233Z,81.80
2018-08-20T02:12:42.832Z,82.70
2018-08-20T02:15:11.465Z,82.30
2018-08-20T02:17:40.117Z,80.20
2018-08-20T02:20:08.789Z,82.40
2018-08-20T02:22:37.407Z,82.30
2018-08-20T02:25:06.518Z,82.40
2018-08-20T02:27:35.136Z,82.90
2018-08-20T02:30:03.814Z,82.80
2018-08-20T02:32:32.402Z,82.90
2018-08-20T02:35:01.019Z,80.60
2018-08-20T02:37:34.810Z,82.60
2018-08-20T02:40:05.796Z,82.70
2018-08-20T02:42:34.737Z,84.10
2018-08-20T02:45:03.860Z,82.80
2018-08-20T02:47:32.450Z,83.90
2018-08-20T02:50:01.057Z,83.50
2018-08-20T02:52:29.652Z,86.50
2018-08-20T02:54:58.271Z,86.10
2018-08-20T02:57:27.021Z,85.70
2018-08-20T02:59:55.629Z,86.10
2018-08-20T03:02:24.232Z,85.50
2018-08-20T03:04:52.864Z,83.70
2018-08-20T03:07:21.488Z,84.00
2018-08-20T03:09:50.109Z,84.40
2018-08-20T03:12:18.697Z,84.30
2018-08-20T03:14:47.301Z,83.50
2018-08-20T03:17:15.927Z,85.80
2018-08-20T03:19:44.784Z,85.10
2018-08-20T03:22:13.385Z,86.60
2018-08-20T03:24:42.028Z,87.50
2018-08-20T03:27:10.661Z,86.30
2018-08-20T03:29:39.277Z,86.00
2018-08-20T03:32:07.925Z,86.70
2018-08-20T03:34:36.542Z,86.10
2018-08-20T03:37:05.546Z,86.60
2018-08-20T03:39:34.137Z,86.20
2018-08-20T03:42:02.910Z,85.30
2018-08-20T03:44:31.522Z,86.50
2018-08-20T03:47:00.125Z,85.40
2018-08-20T03:49:28.721Z,86.60
2018-08-20T03:51:57.385Z,87.70
2018-08-20T03:54:26.036Z,85.80
2018-08-20T03:56:54.677Z,86.30
2018-08-20T03:59:33.459Z,86.60
2018-08-20T04:02:03.451Z,87.90
2018-08-20T04:04:32.270Z,87.90
2018-08-20T04:07:02.117Z,88.20
2018-08-20T04:09:31.312Z,90.00
2018-08-20T04:12:00.641Z,89.40
2018-08-20T04:14:29.635Z,89.20
2018-08-20T04:16:58.843Z,89.10
2018-08-20T04:19:34.877Z,87.10
2018-08-20T04:22:03.571Z,88.00
2018-08-20T04:24:32.169Z,88.40
2018-08-20T04:27:01.014Z,87.80
2018-08-20T04:29:29.692Z,87.80
2018-08-20T04:31:58.521Z,86.70
2018-08-20T04:34:27.117Z,89.80
2018-08-20T04:36:55.722Z,90.60
2018-08-20T04:39:24.319Z,88.00
2018-08-20T04:41:52.932Z,88.00
2018-08-20T04:44:21.531Z,90.40
2018-08-20T04:46:50.197Z,88.60
2018-08-20T04:49:18.769Z,89.20
2018-08-20T04:51:47.383Z,87.70
2018-08-20T04:54:15.961Z,88.10
2018-08-20T04:56:44.582Z,88.20
2018-08-20T04:59:13.153Z,88.40
2018-08-20T05:01:41.749Z,89.50
2018-08-20T05:04:10.317Z,92.20
2018-08-20T05:06:38.922Z,90.80
2018-08-20T05:09:07.893Z,91.10
2018-08-20T05:11:36.534Z,91.60
2018-08-20T05:14:05.209Z,90.20
2018-08-20T05:16:33.805Z,90.40
2018-08-20T05:19:02.673Z,89.60
2018-08-20T05:21:31.717Z,90.30
2018-08-20T05:24:00.341Z,90.40
2018-08-20T05:26:28.953Z,90.30
2018-08-20T05:28:57.574Z,91.10
2018-08-20T05:31:26.556Z,92.30
2018-08-20T05:33:55.157Z,90.30
2018-08-20T05:36:23.738Z,90.50
2018-08-20T05:38:52.371Z,91.30
2018-08-20T05:41:21.037Z,91.80
2018-08-20T05:43:49.664Z,91.60
2018-08-20T05:46:18.321Z,92.30
2018-08-20T05:48:46.927Z,91.50
2018-08-20T05:51:15.586Z,91.10
2018-08-20T05:53:44.206Z,89.60
2018-08-20T05:56:12.827Z,88.30
2018-08-20T05:58:41.442Z,87.60
2018-08-20T06:01:10.133Z,83.90
2018-08-20T06:03:38.745Z,82.90
2018-08-20T06:06:07.836Z,81.30
2018-08-20T06:08:36.466Z,79.60
2018-08-20T06:11:05.577Z,78.70
2018-08-20T06:13:34.194Z,76.50
2018-08-20T06:16:02.777Z,76.10
2018-08-20T06:18:31.408Z,74.20
2018-08-20T06:21:00.074Z,72.50
2018-08-20T06:23:28.696Z,71.50
2018-08-20T06:25:57.338Z,69.70
2018-08-20T06:28:25.979Z,69.50
2018-08-20T06:30:54.625Z,67.70
2018-08-20T06:33:23.264Z,67.40
2018-08-20T06:35:51.928Z,67.50
2018-08-20T06:38:20.513Z,64.00
2018-08-20T06:40:49.097Z,62.70
2018-08-20T06:43:17.733Z,62.80
2018-08-20T06:45:46.315Z,62.20
2018-08-20T06:48:14.945Z,61.40
2018-08-20T06:50:43.636Z,61.00
2018-08-20T06:53:12.250Z,58.80
2018-08-20T06:55:40.842Z,57.40
2018-08-20T06:58:09.513Z,58.00
2018-08-20T07:00:38.111Z,55.40
2018-08-20T07:03:06.927Z,56.00
2018-08-20T07:05:35.527Z,54.40
2018-08-20T07:08:04.225Z,54.10
2018-08-20T07:10:37.970Z,54.10
2018-08-20T07:13:39.173Z,51.30
2018-08-20T07:16:08.871Z,50.90
2018-08-20T07:18:37.543Z,51.00
2018-08-20T07:21:06.143Z,50.50
2018-08-20T07:23:35.799Z,48.30
2018-08-20T07:26:04.405Z,47.60
2018-08-20T07:28:33.081Z,49.40
2018-08-20T07:31:01.746Z,44.90
2018-08-20T07:33:30.508Z,44.10
2018-08-20T07:35:59.343Z,46.20
2018-08-20T07:38:27.977Z,42.90
2018-08-20T07:40:56.590Z,44.00
2018-08-20T07:43:25.873Z,43.30
2018-08-20T07:45:54.494Z,43.40
2018-08-20T07:48:23.134Z,42.00
2018-08-20T07:50:51.816Z,41.10
2018-08-20T07:53:23.044Z,40.90
2018-08-20T07:55:51.826Z,40.50
2018-08-20T07:58:20.724Z,42.10
2018-08-20T08:00:49.370Z,40.60
2018-08-20T08:03:22.185Z,40.10
2018-08-20T08:05:50.833Z,39.30
2018-08-20T08:08:19.450Z,38.70
2018-08-20T08:10:48.109Z,37.60
2018-08-20T08:13:16.676Z,38.10
2018-08-20T08:15:45.353Z,36.80
2018-08-20T08:18:13.946Z,36.70
2018-08-20T08:20:42.605Z,36.10
2018-08-20T08:23:11.212Z,37.30
2018-08-20T08:25:39.875Z,37.10
2018-08-20T08:28:08.545Z,36.10
2018-08-20T08:30:37.966Z,36.40
2018-08-20T08:33:07.142Z,36.40
2018-08-20T08:35:35.737Z,35.00
2018-08-20T08:38:04.425Z,35.40
2018-08-20T08:40:33.042Z,36.80
2018-08-20T08:43:01.673Z,34.90
2018-08-20T08:45:30.873Z,33.70
2018-08-20T08:47:59.490Z,34.50
2018-08-20T08:50:28.436Z,34.10
2018-08-20T08:52:57.574Z,33.60
2018-08-20T08:55:26.636Z,36.60
2018-08-20T08:57:55.767Z,32.90
2018-08-20T09:00:25.086Z,35.80
2018-08-20T09:02:53.649Z,33.50
2018-08-20T09:05:22.294Z,34.80
2018-08-20T09:07:50.914Z,32.50
2018-08-20T09:10:19.561Z,32.30
2018-08-20T09:12:48.149Z,32.50
2018-08-20T09:15:17.622Z,32.80
2018-08-20T09:17:46.387Z,33.20
2018-08-20T09:20:16.428Z,31.70
2018-08-20T09:22:45.300Z,32.50
2018-08-20T09:25:14.919Z,31.40
2018-08-20T09:27:44.727Z,32.30
2018-08-20T09:30:19.490Z,31.60
2018-08-20T09:32:48.680Z,32.10
2018-08-20T09:35:17.454Z,31.60
2018-08-20T09:37:46.080Z,29.80
2018-08-20T09:40:15.205Z,32.40
2018-08-20T09:42:44.136Z,32.30
2018-08-20T09:45:12.817Z,30.50
2018-08-20T09:47:42.310Z,31.40
2018-08-20T09:50:12.510Z,30.00
2018-08-20T09:52:41.106Z,29.90
2018-08-20T09:55:10.137Z,30.00
2018-08-20T09:57:38.750Z,31.10
2018-08-20T10:00:20.849Z,30.60
2018-08-20T10:02:50.016Z,29.80
2018-08-20T10:05:18.993Z,28.60
2018-08-20T10:07:48.271Z,28.80
2018-08-20T10:10:16.849Z,30.80
2018-08-20T10:12:45.950Z,28.80
2018-08-20T10:15:14.886Z,31.00
2018-08-20T10:17:44.265Z,29.70
2018-08-20T10:20:14.237Z,30.50
2018-08-20T10:22:42.901Z,29.70
2018-08-20T10:25:11.557Z,29.00
2018-08-20T10:27:40.209Z,30.00
2018-08-20T10:30:10.558Z,29.50
2018-08-20T10:32:41.346Z,29.40
2018-08-20T10:35:10.874Z,29.40
2018-08-20T10:37:40.348Z,29.10
2018-08-20T10:40:10.470Z,30.30
2018-08-20T10:42:39.500Z,28.80
2018-08-20T10:45:15.252Z,29.70
2018-08-20T10:47:45.138Z,30.00
2018-08-20T10:50:16.613Z,29.70
2018-08-20T10:52:46.965Z,31.90
2018-08-20T10:55:16.913Z,31.50
2018-08-20T10:57:46.109Z,32.20
2018-08-20T11:00:15.758Z,32.80
2018-08-20T11:02:44.395Z,32.90
2018-08-20T11:05:15.421Z,32.50
2018-08-20T11:07:44.345Z,32.80
2018-08-20T11:10:13.086Z,33.10
2018-08-20T11:12:41.669Z,34.00
2018-08-20T11:15:12.440Z,34.70
2018-08-20T11:17:41.103Z,34.50
2018-08-20T11:20:13.830Z,34.50
2018-08-20T11:22:42.652Z,34.90
2018-08-20T11:25:11.865Z,35.60
2018-08-20T11:27:40.700Z,35.70
2018-08-20T11:30:10.722Z,36.60
2018-08-20T11:32:39.361Z,36.40
2018-08-20T11:35:09.601Z,36.50
2018-08-20T11:37:38.239Z,36.20
2018-08-20T11:40:07.482Z,36.90
2018-08-20T11:42:36.177Z,37.50
2018-08-20T11:45:05.082Z,37.70
2018-08-20T11:47:33.669Z,37.30
2018-08-20T11:50:02.321Z,38.80
2018-08-20T11:52:30.922Z,38.90
2018-08-20T11:54:59.513Z,39.40
2018-08-20T11:57:28.123Z,39.30
2018-08-20T11:59:59.058Z,39.10
2018-08-20T12:02:27.673Z,39.70
2018-08-20T12:04:56.260Z,40.00
2018-08-20T12:07:24.936Z,40.30
2018-08-20T12:09:53.546Z,40.70
2018-08-20T12:12:22.160Z,40.30
2018-08-20T12:14:50.745Z,41.20
2018-08-20T12:17:19.414Z,41.00
2018-08-20T12:19:47.954Z,41.10
2018-08-20T12:22:16.615Z,41.00
2018-08-20T12:24:47.223Z,41.60
2018-08-20T12:27:16.221Z,41.70
2018-08-20T12:29:45.304Z,41.60
2018-08-20T12:32:15.657Z,41.50
2018-08-20T12:34:45.039Z,41.80
2018-08-20T12:37:15.051Z,41.90
2018-08-20T12:39:45.872Z,42.20
2018-08-20T12:42:15.564Z,42.30
2018-08-20T12:44:44.483Z,42.50
2018-08-20T12:47:13.915Z,42.00
2018-08-20T12:49:42.626Z,42.50
2018-08-20T12:52:11.228Z,42.70
2018-08-20T12:54:40.402Z,42.90
2018-08-20T12:57:09.301Z,43.20
2018-08-20T12:59:38.569Z,42.90
2018-08-20T13:02:07.748Z,43.40
2018-08-20T13:04:37.222Z,43.60
2018-08-20T13:07:07.634Z,43.00
2018-08-20T13:09:36.666Z,43.20
2018-08-20T13:12:06.205Z,43.30
2018-08-20T13:14:35.144Z,43.20
2018-08-20T13:17:04.777Z,43.20
2018-08-20T13:19:33.564Z,43.20
2018-08-20T13:22:02.925Z,43.50
2018-08-20T13:24:31.679Z,43.50
2018-08-20T13:27:01.298Z,43.10
2018-08-20T13:29:30.892Z,43.70
2018-08-20T13:32:00.145Z,43.10
2018-08-20T13:34:29.590Z,43.70
2018-08-20T13:36:59.310Z,43.70
2018-08-20T13:39:28.755Z,43.80
2018-08-20T13:41:57.349Z,43.70
2018-08-20T13:44:26.887Z,43.70
2018-08-20T13:46:56.177Z,43.60
2018-08-20T13:49:25.627Z,43.70
2018-08-20T13:51:55.482Z,43.80
2018-08-20T13:54:24.277Z,43.60
2018-08-20T13:56:53.784Z,43.60
2018-08-20T13:59:22.433Z,43.70
2018-08-20T14:01:51.413Z,44.20
2018-08-20T14:04:20.674Z,44.00
2018-08-20T14:06:49.542Z,44.30
2018-08-20T14:09:19.320Z,45.00
2018-08-20T14:11:48.331Z,45.50
2018-08-20T14:14:17.036Z,44.90
2018-08-20T14:16:45.862Z,45.00
2018-08-20T14:19:14.678Z,44.80
2018-08-20T14:21:43.433Z,44.50
2018-08-20T14:24:12.334Z,44.30
2018-08-20T14:26:41.061Z,44.70
2018-08-20T14:29:09.781Z,44.50
2018-08-20T14:31:38.394Z,44.20
2018-08-20T14:34:07.054Z,44.50
2018-08-20T14:36:35.941Z,44.50
2018-08-20T14:39:06.015Z,44.40
2018-08-20T14:41:34.697Z,44.90
2018-08-20T14:44:03.375Z,45.60
2018-08-20T14:46:32.236Z,45.40
2018-08-20T14:49:01.045Z,45.50
2018-08-20T14:51:29.804Z,45.90
2018-08-20T14:53:58.489Z,45.90
2018-08-20T14:56:27.161Z,45.90
2018-08-20T14:58:55.788Z,45.70
2018-08-20T15:01:24.719Z,46.70
2018-08-20T15:03:53.520Z,46.60
2018-08-20T15:06:22.206Z,47.40
2018-08-20T15:08:50.926Z,46.30
2018-08-20T15:11:19.778Z,46.50
2018-08-20T15:13:48.807Z,46.40
2018-08-20T15:16:18.362Z,46.70
2018-08-20T15:18:47.105Z,46.70
2018-08-20T15:21:15.782Z,46.00
2018-08-20T15:23:44.545Z,46.10
2018-08-20T15:26:13.181Z,46.10
2018-08-20T15:28:41.785Z,46.20
2018-08-20T15:31:10.481Z,46.00
2018-08-20T15:33:40.055Z,46.70
2018-08-20T15:36:08.699Z,47.10
2018-08-20T15:38:37.273Z,46.50
2018-08-20T15:41:05.893Z,46.70
2018-08-20T15:43:34.497Z,47.00
2018-08-20T15:46:03.274Z,47.30
2018-08-20T15:48:31.876Z,47.50
2018-08-20T15:51:00.701Z,47.20
2018-08-20T15:53:29.313Z,47.20
2018-08-20T15:55:57.917Z,47.90
2018-08-20T15:58:26.517Z,47.50
2018-08-20T16:00:55.185Z,47.00
2018-08-20T16:03:23.826Z,47.20
2018-08-20T16:05:52.478Z,47.30
2018-08-20T16:08:21.069Z,47.30
2018-08-20T16:10:49.884Z,47.70
2018-08-20T16:13:18.800Z,48.00
2018-08-20T16:15:47.520Z,47.80
2018-08-20T16:18:16.142Z,48.10
2018-08-20T16:20:44.779Z,47.70
2018-08-20T16:23:13.401Z,48.10
2018-08-20T16:25:42.024Z,47.90
2018-08-20T16:28:10.625Z,48.30
2018-08-20T16:30:39.249Z,48.20
2018-08-20T16:33:07.953Z,48.80
2018-08-20T16:35:36.573Z,48.70
2018-08-20T16:38:05.208Z,49.00
2018-08-20T16:40:33.802Z,48.90
2018-08-20T16:43:02.417Z,48.70
2018-08-20T16:45:31.134Z,49.00
2018-08-20T16:47:59.762Z,49.10
2018-08-20T16:50:28.612Z,49.40
2018-08-20T16:52:57.297Z,49.00
2018-08-20T16:55:26.381Z,49.40
2018-08-20T16:57:55.032Z,49.40
2018-08-20T17:00:23.645Z,49.20
2018-08-20T17:02:52.253Z,49.90
2018-08-20T17:05:20.879Z,49.70
2018-08-20T17:07:49.677Z,49.80
2018-08-20T17:10:18.278Z,50.10
2018-08-20T17:12:46.953Z,50.20
2018-08-20T17:15:17.005Z,50.10
2018-08-20T17:17:45.624Z,50.30
2018-08-20T17:20:14.198Z,49.90
2018-08-20T17:22:43.245Z,50.50
2018-08-20T17:25:11.897Z,50.50
2018-08-20T17:27:42.385Z,51.30
2018-08-20T17:30:11.017Z,50.80
2018-08-20T17:32:40.003Z,51.40
2018-08-20T17:35:09.567Z,51.30
2018-08-20T17:37:38.217Z,51.30
2018-08-20T17:40:08.709Z,51.20
2018-08-20T17:42:37.395Z,51.80
2018-08-20T17:45:07.585Z,52.40
2018-08-20T17:47:39.159Z,52.30
2018-08-20T17:50:19.454Z,51.90
2018-08-20T17:52:48.081Z,52.20
2018-08-20T17:55:16.808Z,52.00
2018-08-20T17:57:45.503Z,52.20
2018-08-20T18:00:23.389Z,52.00
2018-08-20T18:02:52.006Z,53.00
2018-08-20T18:05:22.145Z,51.60
2018-08-20T18:07:50.865Z,52.50
2018-08-20T18:10:19.493Z,53.10
2018-08-20T18:12:48.139Z,52.30
2018-08-20T18:15:17.127Z,52.80
2018-08-20T18:17:46.216Z,53.90
2018-08-20T18:20:15.526Z,52.60
2018-08-20T18:22:47.854Z,55.80
2018-08-20T18:25:16.562Z,56.10
2018-08-20T18:27:45.612Z,56.50
2018-08-20T18:30:16.699Z,57.60
2018-08-20T18:32:45.793Z,58.30
2018-08-20T18:35:20.430Z,60.00
2018-08-20T18:37:51.691Z,60.40
2018-08-20T18:40:20.289Z,61.40
2018-08-20T18:42:49.519Z,61.00
2018-08-20T18:45:18.234Z,61.60
2018-08-20T18:47:46.901Z,62.00
2018-08-20T18:50:15.510Z,61.40
2018-08-20T18:52:44.142Z,63.50
2018-08-20T18:55:12.721Z,63.40
2018-08-20T18:57:41.690Z,63.80
2018-08-20T19:00:14.210Z,64.20
2018-08-20T19:02:47.777Z,65.80
2018-08-20T19:05:17.395Z,65.00
2018-08-20T19:07:46.927Z,65.00
2018-08-20T19:10:21.790Z,65.90
2018-08-20T19:12:50.409Z,66.10
2018-08-20T19:15:30.145Z,65.90
2018-08-20T19:17:58.869Z,65.80
2018-08-20T19:20:28.342Z,67.00
2018-08-20T19:22:56.949Z,67.10
2018-08-20T19:25:25.669Z,67.10
2018-08-20T19:27:54.341Z,67.60
2018-08-20T19:30:24.818Z,68.70
2018-08-20T19:32:55.252Z,69.40
2018-08-20T19:35:24.717Z,69.70
2018-08-20T19:37:53.569Z,69.60
2018-08-20T19:40:24.771Z,68.70
2018-08-20T19:42:55.568Z,69.50
2018-08-20T19:45:31.290Z,69.80
2018-08-20T19:48:03.109Z,70.80
2018-08-20T19:50:37.016Z,69.80
2018-08-20T19:53:16.974Z,70.20
2018-08-20T19:55:46.954Z,71.30
2018-08-20T19:58:21.003Z,71.00
2018-08-20T20:01:02.647Z,71.50
2018-08-20T20:03:34.939Z,72.80
2018-08-20T20:06:05.671Z,73.90
2018-08-20T20:08:39.441Z,73.10
2018-08-20T20:11:23.798Z,73.00
2018-08-20T20:13:59.224Z,75.70
2018-08-20T20:16:40.368Z,74.30
2018-08-20T20:19:11.600Z,74.40
2018-08-20T20:21:43.047Z,74.00
2018-08-20T20:24:14.851Z,74.30
2018-08-20T20:26:45.225Z,74.60
2018-08-20T20:29:18.699Z,75.00
2018-08-20T20:31:50.629Z,75.10
2018-08-20T20:34:22.128Z,74.50
2018-08-20T20:36:54.261Z,74.90
2018-08-20T20:39:28.742Z,74.00
2018-08-20T20:42:02.483Z,74.20
2018-08-20T20:44:35.510Z,75.30
2018-08-20T20:47:07.083Z,75.90
2018-08-20T20:49:37.708Z,76.20
2018-08-20T20:52:10.802Z,77.40
2018-08-20T20:54:47.673Z,77.30
2018-08-20T20:57:19.165Z,77.60
2018-08-20T20:59:51.920Z,76.80
2018-08-20T21:02:22.766Z,77.80
2018-08-20T21:04:53.387Z,78.40
2018-08-20T21:07:31.322Z,78.30
2018-08-20T21:10:07.998Z,79.50
2018-08-20T21:12:37.567Z,78.30
2018-08-20T21:15:07.570Z,77.40
2018-08-20T21:17:36.689Z,80.00
2018-08-20T21:20:06.533Z,79.90
2018-08-20T21:22:36.930Z,80.10
2018-08-20T21:25:09.263Z,80.80
2018-08-20T21:27:37.909Z,80.60
2018-08-20T21:30:06.821Z,80.20
2018-08-20T21:32:36.174Z,81.30
2018-08-20T21:35:05.601Z,81.40
2018-08-20T21:37:34.213Z,81.40
2018-08-20T21:40:02.858Z,80.20
2018-08-20T21:42:37.586Z,80.20
2018-08-20T21:45:06.307Z,80.70
2018-08-20T21:47:34.988Z,80.60
2018-08-20T21:50:03.622Z,81.10
2018-08-20T21:52:32.224Z,79.70
2018-08-20T21:55:00.802Z,79.60
2018-08-20T21:57:29.418Z,81.00
2018-08-20T22:00:12.063Z,82.80
2018-08-20T22:02:40.801Z,80.20
2018-08-20T22:05:09.388Z,80.60
2018-08-20T22:07:38.037Z,81.40
2018-08-20T22:10:06.830Z,81.80
2018-08-20T22:12:35.401Z,81.40
2018-08-20T22:15:04.444Z,82.50
2018-08-20T22:17:33.060Z,82.80
2018-08-20T22:20:01.671Z,83.20
2018-08-20T22:22:30.317Z,82.20
2018-08-20T22:25:00.103Z,82.40
2018-08-20T22:27:30.318Z,82.30
2018-08-20T22:30:02.973Z,83.10
2018-08-20T22:32:32.564Z,83.50
2018-08-20T22:35:01.201Z,83.00
2018-08-20T22:37:29.887Z,85.10
2018-08-20T22:40:03.797Z,82.20
2018-08-20T22:42:44.223Z,83.50
2018-08-20T22:45:14.709Z,83.30
2018-08-20T22:47:43.781Z,84.30
2018-08-20T22:50:12.383Z,85.20
2018-08-20T22:52:47.497Z,85.40
2018-08-20T22:55:18.143Z,86.30
2018-08-20T22:57:58.354Z,84.70
2018-08-20T23:00:27.557Z,85.90
2018-08-20T23:02:57.058Z,86.20
2018-08-20T23:05:29.712Z,83.90
2018-08-20T23:08:04.768Z,82.40
2018-08-20T23:10:33.395Z,83.00
2018-08-20T23:13:02.088Z,83.90
2018-08-20T23:15:30.870Z,82.60
2018-08-20T23:17:59.497Z,85.40
2018-08-20T23:20:30.417Z,85.30
2018-08-20T23:22:59.064Z,86.60
2018-08-20T23:25:27.643Z,84.50
2018-08-20T23:27:56.298Z,83.90
2018-08-20T23:30:24.893Z,85.00
2018-08-20T23:32:53.612Z,84.40
2018-08-20T23:35:22.193Z,84.20
2018-08-20T23:37:50.794Z,84.20
2018-08-20T23:40:19.417Z,86.10
2018-08-20T23:42:48.025Z,85.80
2018-08-20T23:45:16.640Z,86.90
2018-08-20T23:47:45.258Z,86.10
2018-08-20T23:50:13.873Z,86.50
2018-08-20T23:52:42.701Z,86.60
2018-08-20T23:55:11.283Z,87.00
2018-08-20T23:57:39.931Z,88.00
